Decoded Metar for OIBQ (KHARK ISLAND in IRAN) (IATA:N/A) | Meteo·Mobile Aviation Weather
aviador You're here:

OIBQ Decoded Metar

KHARK ISLAND in IRAN
Report Time2018-09-24 08:00:00
UTC Time2018-09-24 08:23:27
Flight Rules vfr VFR
Wind360° at 04 kt
W.Decomp.*RWY 31: 2.7 kt HW 3.0 kt RCW
Visibility9999 m
Phenomena:N/A
Clouds:N/A
Expected CloudBase > 2,800 ft AGL from Temp-Dew spread
CeilingNone
Temp36°C (ISA +21)
Dew Point29°C (67% RH)
Heat Index52.2°C
QNH1008 hPa
Density Alt3,077 ft
Elevation9 ft
Report Wrong Elevation
Raw Report
METAR OIBQ 240800Z 36004KT CAVOK 36/29 Q1008=

Extra information for OIBQ:More info

Metar Taf Metar & Taf Last 4 Metars F.Rules Stats Wind Profile Meteogram Temp Stats Airport Information Weather charts Add Link Nearby VenuesMetar ALERT Operation Metar Decoded Social comments